Terminal Aerodrome Forecast
Issued by NWS Topeka, KS

Home | Current Version | Previous Version | Graphics & Text | Print | Product List | Glossary On
Versions: 1 2 3 4 5 6 7 8 9 10 11 12 13 14 15 16 17 18
000
FTUS43 KTOP 262300
TAFTOP
TAF
KTOP 262327Z 2700/2724 02004KT P6SM OVC080
     FM270300 01007KT 6SM -SHRA BR OVC025
     FM270600 36009KT 4SM -RA OVC015
     FM270900 36005KT 5SM BR BKN012
     FM271400 01005KT P6SM SCT025=

USA.gov is the U.S. government's official web portal to all federal, state and local government web resources and services.